New Jersey Responder — WBO8578 — position and weather

sailwx.info

Track history (hours):
 
Tides and Currents Weather Stations Pressure Air Temp Water Temp Dewpoint Dewpoint Depression Visibility Wind Speed Wind Dir Waves Ship Positions

New Jersey Responder

Owner: MARINE SPILL RESPONSE CORP, HERNDON, VA. More information available from US FCC via Universal Licensing System and Coast Guard Vessel Documentation Center.

Last reported at 2014-Nov-27 03:28 UTC. Time now 2014-Nov-27 08:19 UTC.
Position N 40°32' W 074°15'.

; draft 4 m.

Type: Pollution control. MMSI: 366594000.

Date/timePositionNaut miles runAvg speedWind from/ knotsBaromVisibWave heightAir tempDewpointWater temp
2014-Nov-27 03:28N 40°32' W 074°15'0 0.0
2014-Nov-26 14:32N 40°32' W 074°15'0 0.0
2014-Nov-26 01:17N 40°32' W 074°15'0 0.0
2014-Nov-25 23:31N 40°32' W 074°15'0 0.0
2014-Nov-25 22:24N 40°32' W 074°15'0 0.0
2014-Nov-25 21:31N 40°32' W 074°15'0 0.0
2014-Nov-25 20:29N 40°32' W 074°15'2 2.2
2014-Nov-25 19:29N 40°30' W 074°15'7 7.6
2014-Nov-25 18:32N 40°30' W 074°06'2 1.8
2014-Nov-25 17:33N 40°30' W 074°03'1 1.1
2014-Nov-25 16:32N 40°30' W 074°05'2 1.9
2014-Nov-25 15:33N 40°30' W 074°07'1 0.7
2014-Nov-25 14:26N 40°30' W 074°08'6 4.9
2014-Nov-25 13:18N 40°32' W 074°15'0 0.0
2014-Nov-24 19:29N 40°32' W 074°15'0 0.0
2014-Nov-24 05:14N 40°32' W 074°15'0 0.0
2014-Nov-24 04:32N 40°32' W 074°15'0 0.0
2014-Nov-24 03:23N 40°32' W 074°15'0 0.0
2014-Nov-24 02:29N 40°32' W 074°15'0 0.0
2014-Nov-24 01:17N 40°32' W 074°15'0 0.0
2014-Nov-24 00:26N 40°32' W 074°15'0 0.0
2014-Nov-23 19:32N 40°32' W 074°15'0 0.0
2014-Nov-23 14:23N 40°32' W 074°15'0 0.0
2014-Nov-22 11:23N 40°32' W 074°15'0 0.0
2014-Nov-22 09:28N 40°32' W 074°15'0 0.0
2014-Nov-21 17:19N 40°32' W 074°15'0 0.0
2014-Nov-21 16:25N 40°32' W 074°15'5 5.5
2014-Nov-21 15:33N 40°30' W 074°09'4 4.1
2014-Nov-21 14:33N 40°29' W 074°04'  
2014-Nov-19 02:18N 40°32' W 074°15'  
Track history (hours):
 
Tides and Currents Weather Stations Pressure Air Temp Water Temp Dewpoint Dewpoint Depression Visibility Wind Speed Wind Dir Waves Ship Positions

New Jersey Responder

Owner: MARINE SPILL RESPONSE CORP, HERNDON, VA. More information available from US FCC via Universal Licensing System and Coast Guard Vessel Documentation Center.

Last reported at 2014-Nov-27 03:28 UTC. Time now 2014-Nov-27 08:19 UTC.
Position N 40°32' W 074°15'.

; draft 4 m.

Type: Pollution control. MMSI: 366594000.

Date/timePositionNaut miles runAvg speedWind from/ knotsBaromVisibWave heightAir tempDewpointWater temp
2014-Nov-27 03:28N 40°32' W 074°15'0 0.0
2014-Nov-26 14:32N 40°32' W 074°15'0 0.0
2014-Nov-26 01:17N 40°32' W 074°15'0 0.0
2014-Nov-25 23:31N 40°32' W 074°15'0 0.0
2014-Nov-25 22:24N 40°32' W 074°15'0 0.0
2014-Nov-25 21:31N 40°32' W 074°15'0 0.0
2014-Nov-25 20:29N 40°32' W 074°15'2 2.2
2014-Nov-25 19:29N 40°30' W 074°15'7 7.6
2014-Nov-25 18:32N 40°30' W 074°06'2 1.8
2014-Nov-25 17:33N 40°30' W 074°03'1 1.1
2014-Nov-25 16:32N 40°30' W 074°05'2 1.9
2014-Nov-25 15:33N 40°30' W 074°07'1 0.7
2014-Nov-25 14:26N 40°30' W 074°08'6 4.9
2014-Nov-25 13:18N 40°32' W 074°15'0 0.0
2014-Nov-24 19:29N 40°32' W 074°15'0 0.0
2014-Nov-24 05:14N 40°32' W 074°15'0 0.0
2014-Nov-24 04:32N 40°32' W 074°15'0 0.0
2014-Nov-24 03:23N 40°32' W 074°15'0 0.0
2014-Nov-24 02:29N 40°32' W 074°15'0 0.0
2014-Nov-24 01:17N 40°32' W 074°15'0 0.0
2014-Nov-24 00:26N 40°32' W 074°15'0 0.0
2014-Nov-23 19:32N 40°32' W 074°15'0 0.0
2014-Nov-23 14:23N 40°32' W 074°15'0 0.0
2014-Nov-22 11:23N 40°32' W 074°15'0 0.0
2014-Nov-22 09:28N 40°32' W 074°15'0 0.0
2014-Nov-21 17:19N 40°32' W 074°15'0 0.0
2014-Nov-21 16:25N 40°32' W 074°15'5 5.5
2014-Nov-21 15:33N 40°30' W 074°09'4 4.1
2014-Nov-21 14:33N 40°29' W 074°04'  
2014-Nov-19 02:18N 40°32' W 074°15'  

Dump ship's entire track history